CheckWX is a tool to help pilots better visualize weather data.  It is not intended as a substitute for an official pre-flight weather briefing.

07:50:18 UTC

KUDG METAR
Darlington County Airport
Darlington, South Carolina, USA
Current

54 mins ago

KUDG 120656Z AUTO 02006KT 10SM CLR M02/M02 A3055 RMK AO2 SLP348 T10171022 FZRANO
Observed
Dec-12 @ 06:56 UTC
Wind
  • 020° at 6 KTS
Visibility
10 SM
Flight Rules
VFR
Cloud Levels
  • Clear skies
Temperature
-2°C / 28°F
Dewpoint
-2°C / 28°F
Humidity
100%
Altimeter
30.55" Hg
Pressure
1034.52 hPa
Previous

2 hours ago

KUDG 120556Z AUTO 34003KT 10SM CLR M01/M02 A3054 RMK AO2 SLP345 T10111017 10050 21011 50001 FZRANO
Observed
Dec-12 @ 05:56 UTC
Wind
  • 340° at 3 KTS
Visibility
10 SM
Flight Rules
VFR
Cloud Levels
  • Clear skies
Temperature
-1°C / 30°F
Dewpoint
-2°C / 28°F
Humidity
93%
Altimeter
30.54" Hg
Pressure
1034.22 hPa
Previous

3 hours ago

KUDG 120456Z AUTO 33003KT 10SM CLR M01/M01 A3054 RMK AO2 SLP346 T10061011 FZRANO
Observed
Dec-12 @ 04:56 UTC
Wind
  • 330° at 3 KTS
Visibility
10 SM
Flight Rules
VFR
Cloud Levels
  • Clear skies
Temperature
-1°C / 30°F
Dewpoint
-1°C / 30°F
Humidity
100%
Altimeter
30.54" Hg
Pressure
1034.22 hPa